sensor_id;sensor_type;location;lat;lon;timestamp;pressure;altitude;pressure_sealevel;temperature;humidity
35647;BME280;28680;45.642;13.756;2023-05-12T00:00:50;100967.97;;;14.80;100.00
35647;BME280;28680;45.642;13.756;2023-05-12T00:03:16;100955.56;;;14.81;100.00
35647;BME280;28680;45.642;13.756;2023-05-12T00:05:41;100955.84;;;14.78;100.00
35647;BME280;28680;45.642;13.756;2023-05-12T00:08:07;100953.50;;;14.75;100.00
35647;BME280;28680;45.642;13.756;2023-05-12T00:10:33;100938.44;;;14.85;100.00
35647;BME280;28680;45.642;13.756;2023-05-12T00:13:00;100946.69;;;14.82;100.00
35647;BME280;28680;45.642;13.756;2023-05-12T00:15:26;100949.59;;;14.79;100.00
35647;BME280;28680;45.642;13.756;2023-05-12T00:17:51;100954.31;;;14.75;100.00
35647;BME280;28680;45.642;13.756;2023-05-12T00:20:17;100954.47;;;14.74;100.00
35647;BME280;28680;45.642;13.756;2023-05-12T00:22:43;100957.09;;;14.74;100.00
35647;BME280;28680;45.642;13.756;2023-05-12T00:25:09;100950.16;;;14.73;100.00
35647;BME280;28680;45.642;13.756;2023-05-12T00:27:35;100945.72;;;14.73;100.00
35647;BME280;28680;45.642;13.756;2023-05-12T00:30:00;100949.19;;;14.74;100.00
35647;BME280;28680;45.642;13.756;2023-05-12T00:32:26;100952.13;;;14.71;100.00
35647;BME280;28680;45.642;13.756;2023-05-12T00:34:52;100949.19;;;14.74;100.00
35647;BME280;28680;45.642;13.756;2023-05-12T00:37:19;100951.56;;;14.77;100.00
35647;BME280;28680;45.642;13.756;2023-05-12T00:39:45;100946.97;;;14.79;100.00
35647;BME280;28680;45.642;13.756;2023-05-12T00:42:11;100946.25;;;14.77;100.00
35647;BME280;28680;45.642;13.756;2023-05-12T00:44:37;100958.50;;;14.68;100.00
35647;BME280;28680;45.642;13.756;2023-05-12T00:47:04;100948.94;;;14.67;100.00
35647;BME280;28680;45.642;13.756;2023-05-12T00:49:30;100947.00;;;14.59;100.00
35647;BME280;28680;45.642;13.756;2023-05-12T00:51:58;100948.50;;;14.62;100.00
35647;BME280;28680;45.642;13.756;2023-05-12T00:54:27;100946.56;;;14.64;100.00
35647;BME280;28680;45.642;13.756;2023-05-12T00:56:54;100945.16;;;14.70;100.00
35647;BME280;28680;45.642;13.756;2023-05-12T00:59:20;100946.66;;;14.72;100.00
35647;BME280;28680;45.642;13.756;2023-05-12T01:01:49;100937.94;;;14.62;100.00
35647;BME280;28680;45.642;13.756;2023-05-12T01:04:15;100927.22;;;14.54;100.00
35647;BME280;28680;45.642;13.756;2023-05-12T01:07:25;100914.75;;;14.46;100.00
35647;BME280;28680;45.642;13.756;2023-05-12T01:09:56;100919.03;;;14.47;100.00
35647;BME280;28680;45.642;13.756;2023-05-12T01:12:26;100917.22;;;14.48;100.00
35647;BME280;28680;45.642;13.756;2023-05-12T01:14:54;100914.03;;;14.44;100.00
35647;BME280;28680;45.642;13.756;2023-05-12T01:17:31;100915.25;;;14.50;100.00
35647;BME280;28680;45.642;13.756;2023-05-12T01:20:02;100912.63;;;14.50;100.00
35647;BME280;28680;45.642;13.756;2023-05-12T01:22:30;100918.06;;;14.48;100.00
35647;BME280;28680;45.642;13.756;2023-05-12T01:25:06;100919.16;;;14.46;100.00
35647;BME280;28680;45.642;13.756;2023-05-12T01:27:33;100918.59;;;14.42;100.00
35647;BME280;28680;45.642;13.756;2023-05-12T01:30:03;100916.53;;;14.46;100.00
35647;BME280;28680;45.642;13.756;2023-05-12T01:32:29;100919.88;;;14.38;100.00
35647;BME280;28680;45.642;13.756;2023-05-12T01:34:55;100917.91;;;14.40;100.00
35647;BME280;28680;45.642;13.756;2023-05-12T01:37:21;100926.69;;;14.40;100.00
35647;BME280;28680;45.642;13.756;2023-05-12T01:39:48;100921.69;;;14.37;100.00
35647;BME280;28680;45.642;13.756;2023-05-12T01:42:14;100937.09;;;14.32;100.00
35647;BME280;28680;45.642;13.756;2023-05-12T01:44:40;100922.94;;;14.23;100.00
35647;BME280;28680;45.642;13.756;2023-05-12T01:47:06;100918.50;;;14.34;100.00
35647;BME280;28680;45.642;13.756;2023-05-12T01:49:34;100905.41;;;14.42;100.00
35647;BME280;28680;45.642;13.756;2023-05-12T01:52:00;100902.22;;;14.48;100.00
35647;BME280;28680;45.642;13.756;2023-05-12T01:54:26;100899.59;;;14.48;100.00
35647;BME280;28680;45.642;13.756;2023-05-12T01:56:52;100894.44;;;14.47;100.00
35647;BME280;28680;45.642;13.756;2023-05-12T01:59:17;100900.28;;;14.40;100.00
35647;BME280;28680;45.642;13.756;2023-05-12T02:01:43;100900.69;;;14.36;100.00
35647;BME280;28680;45.642;13.756;2023-05-12T02:04:09;100897.78;;;14.39;100.00
35647;BME280;28680;45.642;13.756;2023-05-12T02:06:35;100891.81;;;14.37;100.00
35647;BME280;28680;45.642;13.756;2023-05-12T02:09:01;100890.97;;;14.36;100.00
35647;BME280;28680;45.642;13.756;2023-05-12T02:11:27;100890.13;;;14.36;100.00
35647;BME280;28680;45.642;13.756;2023-05-12T02:13:53;100891.50;;;14.40;100.00
35647;BME280;28680;45.642;13.756;2023-05-12T02:16:19;100887.78;;;14.42;100.00
35647;BME280;28680;45.642;13.756;2023-05-12T02:18:44;100891.38;;;14.41;100.00
35647;BME280;28680;45.642;13.756;2023-05-12T02:21:10;100893.31;;;14.39;100.00
35647;BME280;28680;45.642;13.756;2023-05-12T02:23:36;100892.50;;;14.39;100.00
35647;BME280;28680;45.642;13.756;2023-05-12T02:26:02;100890.28;;;14.34;100.00
35647;BME280;28680;45.642;13.756;2023-05-12T02:28:28;100889.72;;;14.31;100.00
35647;BME280;28680;45.642;13.756;2023-05-12T02:30:54;100895.13;;;14.19;100.00
35647;BME280;28680;45.642;13.756;2023-05-12T02:33:20;100908.06;;;14.13;100.00
35647;BME280;28680;45.642;13.756;2023-05-12T02:35:47;100910.44;;;14.16;100.00
35647;BME280;28680;45.642;13.756;2023-05-12T02:38:13;100910.59;;;14.14;100.00
35647;BME280;28680;45.642;13.756;2023-05-12T02:40:39;100914.19;;;14.13;100.00
35647;BME280;28680;45.642;13.756;2023-05-12T02:43:05;100917.94;;;14.01;100.00
35647;BME280;28680;45.642;13.756;2023-05-12T02:45:31;100927.13;;;14.07;100.00
35647;BME280;28680;45.642;13.756;2023-05-12T02:47:58;100916.81;;;14.13;100.00
35647;BME280;28680;45.642;13.756;2023-05-12T02:50:24;100927.50;;;14.12;100.00
35647;BME280;28680;45.642;13.756;2023-05-12T02:52:50;100917.81;;;14.12;100.00
35647;BME280;28680;45.642;13.756;2023-05-12T02:55:16;100928.19;;;14.14;100.00
35647;BME280;28680;45.642;13.756;2023-05-12T02:57:43;100927.13;;;14.16;100.00
35647;BME280;28680;45.642;13.756;2023-05-12T03:00:09;100926.41;;;14.14;100.00
35647;BME280;28680;45.642;13.756;2023-05-12T03:02:37;100922.25;;;14.21;100.00
35647;BME280;28680;45.642;13.756;2023-05-12T03:05:04;100914.88;;;14.25;100.00
35647;BME280;28680;45.642;13.756;2023-05-12T03:07:30;100913.66;;;14.29;100.00
35647;BME280;28680;45.642;13.756;2023-05-12T03:09:59;100906.41;;;14.31;100.00
35647;BME280;28680;45.642;13.756;2023-05-12T03:12:26;100905.41;;;14.32;100.00
35647;BME280;28680;45.642;13.756;2023-05-12T03:14:55;100915.84;;;14.24;100.00
35647;BME280;28680;45.642;13.756;2023-05-12T03:17:21;100908.19;;;14.21;100.00
35647;BME280;28680;45.642;13.756;2023-05-12T03:19:47;100919.59;;;14.12;100.00
35647;BME280;28680;45.642;13.756;2023-05-12T03:22:13;100921.28;;;14.13;100.00
35647;BME280;28680;45.642;13.756;2023-05-12T03:24:39;100920.72;;;14.09;100.00
35647;BME280;28680;45.642;13.756;2023-05-12T03:27:05;100917.81;;;14.12;100.00
35647;BME280;28680;45.642;13.756;2023-05-12T03:29:31;100922.66;;;14.17;100.00
35647;BME280;28680;45.642;13.756;2023-05-12T03:31:56;100924.47;;;14.16;100.00
35647;BME280;28680;45.642;13.756;2023-05-12T03:34:22;100919.75;;;14.20;100.00
35647;BME280;28680;45.642;13.756;2023-05-12T03:36:48;100917.50;;;14.15;100.00
35647;BME280;28680;45.642;13.756;2023-05-12T03:39:14;100928.50;;;14.20;100.00
35647;BME280;28680;45.642;13.756;2023-05-12T03:41:40;100920.44;;;14.22;100.00
35647;BME280;28680;45.642;13.756;2023-05-12T03:44:06;100931.28;;;14.19;100.00
35647;BME280;28680;45.642;13.756;2023-05-12T03:46:33;100931.56;;;14.16;100.00
35647;BME280;28680;45.642;13.756;2023-05-12T03:48:59;100924.88;;;14.12;100.00
35647;BME280;28680;45.642;13.756;2023-05-12T03:51:25;100927.25;;;14.15;100.00
35647;BME280;28680;45.642;13.756;2023-05-12T03:53:52;100928.94;;;14.16;100.00
35647;BME280;28680;45.642;13.756;2023-05-12T03:56:18;100930.16;;;14.12;100.00
35647;BME280;28680;45.642;13.756;2023-05-12T03:58:44;100931.28;;;14.09;100.00
35647;BME280;28680;45.642;13.756;2023-05-12T04:01:12;100927.50;;;14.12;100.00
35647;BME280;28680;45.642;13.756;2023-05-12T04:03:37;100928.19;;;14.14;100.00
35647;BME280;28680;45.642;13.756;2023-05-12T04:06:06;100929.19;;;14.13;100.00
35647;BME280;28680;45.642;13.756;2023-05-12T04:08:32;100931.97;;;14.11;100.00
35647;BME280;28680;45.642;13.756;2023-05-12T04:11:00;100937.13;;;14.13;100.00
35647;BME280;28680;45.642;13.756;2023-05-12T04:13:27;100937.25;;;14.11;100.00
35647;BME280;28680;45.642;13.756;2023-05-12T04:15:57;100941.00;;;14.09;100.00
35647;BME280;28680;45.642;13.756;2023-05-12T04:18:25;100936.56;;;14.09;100.00
35647;BME280;28680;45.642;13.756;2023-05-12T04:20:52;100932.53;;;14.15;100.00
35647;BME280;28680;45.642;13.756;2023-05-12T04:23:18;100939.19;;;14.19;100.00
35647;BME280;28680;45.642;13.756;2023-05-12T04:25:45;100946.84;;;14.22;100.00
35647;BME280;28680;45.642;13.756;2023-05-12T04:28:11;100947.09;;;14.29;100.00
35647;BME280;28680;45.642;13.756;2023-05-12T04:30:41;100960.44;;;14.27;100.00
35647;BME280;28680;45.642;13.756;2023-05-12T04:33:07;100969.34;;;14.26;100.00
35647;BME280;28680;45.642;13.756;2023-05-12T04:35:34;100962.56;;;14.23;100.00
35647;BME280;28680;45.642;13.756;2023-05-12T04:37:59;100960.72;;;14.24;100.00
35647;BME280;28680;45.642;13.756;2023-05-12T04:40:29;100970.88;;;14.29;100.00
35647;BME280;28680;45.642;13.756;2023-05-12T04:42:55;100970.16;;;14.27;100.00
35647;BME280;28680;45.642;13.756;2023-05-12T04:45:21;100977.28;;;14.36;100.00
35647;BME280;28680;45.642;13.756;2023-05-12T04:47:47;100986.19;;;14.35;100.00
35647;BME280;28680;45.642;13.756;2023-05-12T04:50:13;100983.25;;;14.38;100.00
35647;BME280;28680;45.642;13.756;2023-05-12T04:52:38;100978.09;;;14.36;100.00
35647;BME280;28680;45.642;13.756;2023-05-12T04:55:06;100975.31;;;14.38;100.00
35647;BME280;28680;45.642;13.756;2023-05-12T04:57:32;100976.00;;;14.40;100.00
35647;BME280;28680;45.642;13.756;2023-05-12T04:59:58;100972.69;;;14.38;100.00
35647;BME280;28680;45.642;13.756;2023-05-12T05:02:25;100965.44;;;14.40;100.00
35647;BME280;28680;45.642;13.756;2023-05-12T05:04:52;100972.97;;;14.45;100.00
35647;BME280;28680;45.642;13.756;2023-05-12T05:07:18;100975.47;;;14.46;100.00
35647;BME280;28680;45.642;13.756;2023-05-12T05:09:43;100975.03;;;14.51;100.00
35647;BME280;28680;45.642;13.756;2023-05-12T05:12:09;100975.72;;;14.53;100.00
35647;BME280;28680;45.642;13.756;2023-05-12T05:14:35;100977.00;;;14.58;100.00
35647;BME280;28680;45.642;13.756;2023-05-12T05:17:01;100981.88;;;14.63;100.00
35647;BME280;28680;45.642;13.756;2023-05-12T05:19:28;100981.72;;;14.65;100.00
35647;BME280;28680;45.642;13.756;2023-05-12T05:21:54;100969.50;;;14.64;100.00
35647;BME280;28680;45.642;13.756;2023-05-12T05:24:20;100967.56;;;14.66;100.00
35647;BME280;28680;45.642;13.756;2023-05-12T05:26:46;100965.03;;;14.74;100.00
35647;BME280;28680;45.642;13.756;2023-05-12T05:29:11;100969.50;;;14.73;100.00
35647;BME280;28680;45.642;13.756;2023-05-12T05:31:37;100975.59;;;14.74;100.00
35647;BME280;28680;45.642;13.756;2023-05-12T05:34:03;100976.28;;;14.76;100.00
35647;BME280;28680;45.642;13.756;2023-05-12T05:36:29;100987.53;;;14.78;100.00
35647;BME280;28680;45.642;13.756;2023-05-12T05:38:55;100988.53;;;14.77;100.00
35647;BME280;28680;45.642;13.756;2023-05-12T05:41:21;100971.56;;;14.79;100.00
35647;BME280;28680;45.642;13.756;2023-05-12T05:43:48;100974.06;;;14.81;100.00
35647;BME280;28680;45.642;13.756;2023-05-12T05:46:13;100975.03;;;14.90;100.00
35647;BME280;28680;45.642;13.756;2023-05-12T05:48:39;100973.63;;;14.95;100.00
35647;BME280;28680;45.642;13.756;2023-05-12T05:51:05;100971.38;;;15.00;100.00
35647;BME280;28680;45.642;13.756;2023-05-12T05:53:31;100968.59;;;15.02;100.00
35647;BME280;28680;45.642;13.756;2023-05-12T05:55:57;100974.84;;;15.11;100.00
35647;BME280;28680;45.642;13.756;2023-05-12T05:58:23;100972.31;;;15.09;100.00
35647;BME280;28680;45.642;13.756;2023-05-12T06:00:49;100981.34;;;15.16;100.00
35647;BME280;28680;45.642;13.756;2023-05-12T06:03:15;100974.53;;;15.14;100.00
35647;BME280;28680;45.642;13.756;2023-05-12T06:05:41;100976.44;;;15.21;100.00
35647;BME280;28680;45.642;13.756;2023-05-12T06:08:08;100970.19;;;15.23;100.00
35647;BME280;28680;45.642;13.756;2023-05-12T06:10:36;100972.16;;;15.20;100.00
35647;BME280;28680;45.642;13.756;2023-05-12T06:13:03;100978.81;;;15.25;100.00
35647;BME280;28680;45.642;13.756;2023-05-12T06:15:29;100984.25;;;15.23;100.00
35647;BME280;28680;45.642;13.756;2023-05-12T06:17:55;100981.91;;;15.20;100.00
35647;BME280;28680;45.642;13.756;2023-05-12T06:20:21;100983.88;;;15.18;100.00
35647;BME280;28680;45.642;13.756;2023-05-12T06:22:48;100979.69;;;15.15;100.00
35647;BME280;28680;45.642;13.756;2023-05-12T06:25:14;100985.09;;;15.14;100.00
35647;BME280;28680;45.642;13.756;2023-05-12T06:27:39;100981.34;;;15.16;100.00
35647;BME280;28680;45.642;13.756;2023-05-12T06:30:06;100989.69;;;15.12;100.00
35647;BME280;28680;45.642;13.756;2023-05-12T06:32:32;100991.38;;;15.13;100.00
35647;BME280;28680;45.642;13.756;2023-05-12T06:34:58;100996.25;;;15.08;100.00
35647;BME280;28680;45.642;13.756;2023-05-12T06:37:24;100996.84;;;15.01;100.00
35647;BME280;28680;45.642;13.756;2023-05-12T06:39:50;101009.94;;;14.93;100.00
35647;BME280;28680;45.642;13.756;2023-05-12T06:42:16;101019.69;;;14.83;100.00
35647;BME280;28680;45.642;13.756;2023-05-12T06:44:42;101031.63;;;14.77;100.00
35647;BME280;28680;45.642;13.756;2023-05-12T06:47:08;101041.34;;;14.48;100.00
35647;BME280;28680;45.642;13.756;2023-05-12T06:49:34;101045.22;;;14.53;100.00
35647;BME280;28680;45.642;13.756;2023-05-12T06:52:02;101038.84;;;14.56;100.00
35647;BME280;28680;45.642;13.756;2023-05-12T06:54:28;101037.38;;;14.63;100.00
35647;BME280;28680;45.642;13.756;2023-05-12T06:56:54;101028.00;;;14.69;100.00
35647;BME280;28680;45.642;13.756;2023-05-12T06:59:20;101028.19;;;14.67;100.00
35647;BME280;28680;45.642;13.756;2023-05-12T07:01:46;101034.72;;;14.73;100.00
35647;BME280;28680;45.642;13.756;2023-05-12T07:04:11;101034.03;;;14.71;100.00
35647;BME280;28680;45.642;13.756;2023-05-12T07:06:37;101037.63;;;14.70;100.00
35647;BME280;28680;45.642;13.756;2023-05-12T07:09:03;101040.63;;;14.55;100.00
35647;BME280;28680;45.642;13.756;2023-05-12T07:11:29;101025.69;;;14.66;100.00
35647;BME280;28680;45.642;13.756;2023-05-12T07:13:55;101035.56;;;14.64;100.00
35647;BME280;28680;45.642;13.756;2023-05-12T07:16:21;101026.22;;;14.69;100.00
35647;BME280;28680;45.642;13.756;2023-05-12T07:18:47;101027.34;;;14.76;100.00
35647;BME280;28680;45.642;13.756;2023-05-12T07:21:13;101020.91;;;14.89;100.00
35647;BME280;28680;45.642;13.756;2023-05-12T07:23:39;101017.44;;;14.98;100.00
35647;BME280;28680;45.642;13.756;2023-05-12T07:26:06;101018.81;;;15.02;100.00
35647;BME280;28680;45.642;13.756;2023-05-12T07:28:34;101030.91;;;15.05;100.00
35647;BME280;28680;45.642;13.756;2023-05-12T07:31:07;101026.84;;;15.10;100.00
35647;BME280;28680;45.642;13.756;2023-05-12T07:33:34;101025.75;;;15.13;100.00
35647;BME280;28680;45.642;13.756;2023-05-12T07:36:01;101030.03;;;15.14;100.00
35647;BME280;28680;45.642;13.756;2023-05-12T07:38:29;101031.03;;;15.13;100.00
35647;BME280;28680;45.642;13.756;2023-05-12T07:40:55;101029.88;;;15.25;100.00
35647;BME280;28680;45.642;13.756;2023-05-12T07:43:21;101031.25;;;15.39;100.00
35647;BME280;28680;45.642;13.756;2023-05-12T07:45:47;101033.59;;;15.42;100.00
35647;BME280;28680;45.642;13.756;2023-05-12T07:48:13;101032.53;;;15.35;100.00
35647;BME280;28680;45.642;13.756;2023-05-12T07:50:39;101025.63;;;15.14;100.00
35647;BME280;28680;45.642;13.756;2023-05-12T07:53:05;101018.22;;;15.18;100.00
35647;BME280;28680;45.642;13.756;2023-05-12T07:55:31;101017.50;;;15.26;100.00
35647;BME280;28680;45.642;13.756;2023-05-12T07:58:01;101021.94;;;15.35;100.00
35647;BME280;28680;45.642;13.756;2023-05-12T08:00:27;101013.38;;;15.51;100.00
35647;BME280;28680;45.642;13.756;2023-05-12T08:02:53;101011.16;;;15.84;100.00
35647;BME280;28680;45.642;13.756;2023-05-12T08:05:19;101007.19;;;15.97;100.00
35647;BME280;28680;45.642;13.756;2023-05-12T08:07:45;101007.41;;;16.04;100.00
35647;BME280;28680;45.642;13.756;2023-05-12T08:10:12;101009.56;;;16.18;100.00
35647;BME280;28680;45.642;13.756;2023-05-12T08:12:39;101014.41;;;16.41;100.00
35647;BME280;28680;45.642;13.756;2023-05-12T08:15:06;101020.84;;;16.56;100.00
35647;BME280;28680;45.642;13.756;2023-05-12T08:17:33;101018.47;;;16.71;100.00
35647;BME280;28680;45.642;13.756;2023-05-12T08:19:59;101023.78;;;16.89;100.00
35647;BME280;28680;45.642;13.756;2023-05-12T08:22:25;101021.47;;;16.76;100.00
35647;BME280;28680;45.642;13.756;2023-05-12T08:24:51;101018.34;;;16.73;100.00
35647;BME280;28680;45.642;13.756;2023-05-12T08:27:20;101025.56;;;16.71;100.00
35647;BME280;28680;45.642;13.756;2023-05-12T08:29:45;101023.88;;;16.62;100.00
35647;BME280;28680;45.642;13.756;2023-05-12T08:32:11;101022.72;;;16.64;100.00
35647;BME280;28680;45.642;13.756;2023-05-12T08:34:37;101021.03;;;16.63;100.00
35647;BME280;28680;45.642;13.756;2023-05-12T08:37:04;101022.88;;;16.63;100.00
35647;BME280;28680;45.642;13.756;2023-05-12T08:39:31;101020.16;;;16.54;100.00
35647;BME280;28680;45.642;13.756;2023-05-12T08:44:36;101024.88;;;16.43;100.00
35647;BME280;28680;45.642;13.756;2023-05-12T08:47:04;101031.06;;;16.33;100.00
35647;BME280;28680;45.642;13.756;2023-05-12T08:49:32;101028.59;;;16.04;100.00
35647;BME280;28680;45.642;13.756;2023-05-12T08:52:01;101035.19;;;16.18;100.00
35647;BME280;28680;45.642;13.756;2023-05-12T08:54:28;101045.63;;;16.20;100.00
35647;BME280;28680;45.642;13.756;2023-05-12T08:56:55;101043.59;;;16.13;100.00
35647;BME280;28680;45.642;13.756;2023-05-12T08:59:22;101048.19;;;16.11;100.00
35647;BME280;28680;45.642;13.756;2023-05-12T09:01:49;101056.00;;;16.31;100.00
35647;BME280;28680;45.642;13.756;2023-05-12T09:04:16;101064.88;;;16.40;100.00
35647;BME280;28680;45.642;13.756;2023-05-12T09:06:43;101064.97;;;16.48;100.00
35647;BME280;28680;45.642;13.756;2023-05-12T09:09:12;101067.59;;;16.30;100.00
35647;BME280;28680;45.642;13.756;2023-05-12T09:11:43;101076.91;;;16.34;100.00
35647;BME280;28680;45.642;13.756;2023-05-12T09:14:18;101080.38;;;16.34;100.00
35647;BME280;28680;45.642;13.756;2023-05-12T09:16:48;101083.88;;;16.71;100.00
35647;BME280;28680;45.642;13.756;2023-05-12T09:19:19;101082.31;;;16.60;100.00
35647;BME280;28680;45.642;13.756;2023-05-12T09:21:47;101079.78;;;16.86;100.00
35647;BME280;28680;45.642;13.756;2023-05-12T09:24:12;101089.38;;;17.05;100.00
35647;BME280;28680;45.642;13.756;2023-05-12T09:26:48;101082.13;;;17.15;100.00
35647;BME280;28680;45.642;13.756;2023-05-12T09:29:14;101083.56;;;17.28;100.00
35647;BME280;28680;45.642;13.756;2023-05-12T09:31:54;101081.63;;;17.38;100.00
35647;BME280;28680;45.642;13.756;2023-05-12T09:34:33;101082.03;;;17.51;100.00
35647;BME280;28680;45.642;13.756;2023-05-12T09:37:06;101084.72;;;17.60;100.00
35647;BME280;28680;45.642;13.756;2023-05-12T09:39:33;101081.66;;;17.72;100.00
35647;BME280;28680;45.642;13.756;2023-05-12T09:41:59;101084.09;;;17.92;100.00
35647;BME280;28680;45.642;13.756;2023-05-12T09:44:25;101084.59;;;17.96;100.00
35647;BME280;28680;45.642;13.756;2023-05-12T09:46:53;101080.81;;;18.06;100.00
35647;BME280;28680;45.642;13.756;2023-05-12T09:49:20;101074.19;;;18.10;100.00
35647;BME280;28680;45.642;13.756;2023-05-12T09:51:57;101084.00;;;18.18;100.00
35647;BME280;28680;45.642;13.756;2023-05-12T09:54:27;101073.44;;;18.35;100.00
35647;BME280;28680;45.642;13.756;2023-05-12T09:57:02;101081.59;;;18.49;100.00
35647;BME280;28680;45.642;13.756;2023-05-12T09:59:34;101080.28;;;18.62;100.00
35647;BME280;28680;45.642;13.756;2023-05-12T10:02:02;101081.94;;;18.71;100.00
35647;BME280;28680;45.642;13.756;2023-05-12T10:04:50;101083.13;;;18.68;100.00
35647;BME280;28680;45.642;13.756;2023-05-12T10:07:21;101082.13;;;18.78;100.00
35647;BME280;28680;45.642;13.756;2023-05-12T10:09:54;101083.66;;;18.80;100.00
35647;BME280;28680;45.642;13.756;2023-05-12T10:12:23;101079.44;;;18.61;100.00
35647;BME280;28680;45.642;13.756;2023-05-12T10:14:49;101070.31;;;18.47;100.00
35647;BME280;28680;45.642;13.756;2023-05-12T10:17:18;101082.41;;;18.34;100.00
35647;BME280;28680;45.642;13.756;2023-05-12T10:19:46;101075.94;;;18.36;100.00
35647;BME280;28680;45.642;13.756;2023-05-12T10:22:14;101079.75;;;18.34;100.00
35647;BME280;28680;45.642;13.756;2023-05-12T10:24:41;101080.06;;;18.39;100.00
35647;BME280;28680;45.642;13.756;2023-05-12T10:27:09;101083.44;;;18.49;100.00
35647;BME280;28680;45.642;13.756;2023-05-12T10:29:36;101080.78;;;18.65;100.00
35647;BME280;28680;45.642;13.756;2023-05-12T10:32:03;101077.63;;;18.70;100.00
35647;BME280;28680;45.642;13.756;2023-05-12T10:34:36;101075.34;;;18.83;100.00
35647;BME280;28680;45.642;13.756;2023-05-12T10:37:06;101077.31;;;18.98;100.00
35647;BME280;28680;45.642;13.756;2023-05-12T10:39:36;101077.66;;;19.11;100.00
35647;BME280;28680;45.642;13.756;2023-05-12T10:42:09;101079.16;;;19.14;100.00
35647;BME280;28680;45.642;13.756;2023-05-12T10:44:35;101071.97;;;19.31;100.00
35647;BME280;28680;45.642;13.756;2023-05-12T10:47:12;101076.28;;;19.32;100.00
35647;BME280;28680;45.642;13.756;2023-05-12T10:49:41;101065.63;;;19.48;100.00
35647;BME280;28680;45.642;13.756;2023-05-12T10:52:11;101066.22;;;19.58;100.00
35647;BME280;28680;45.642;13.756;2023-05-12T10:54:42;101071.44;;;19.52;100.00
35647;BME280;28680;45.642;13.756;2023-05-12T10:57:19;101073.69;;;19.71;100.00
35647;BME280;28680;45.642;13.756;2023-05-12T10:59:56;101074.47;;;19.96;100.00
35647;BME280;28680;45.642;13.756;2023-05-12T11:02:25;101060.63;;;20.32;100.00
35647;BME280;28680;45.642;13.756;2023-05-12T11:04:59;101064.38;;;20.69;100.00
35647;BME280;28680;45.642;13.756;2023-05-12T11:07:30;101060.38;;;20.88;100.00
35647;BME280;28680;45.642;13.756;2023-05-12T11:09:59;101055.19;;;21.25;100.00
35647;BME280;28680;45.642;13.756;2023-05-12T11:12:31;101051.56;;;21.55;100.00
35647;BME280;28680;45.642;13.756;2023-05-12T11:14:59;101039.84;;;21.71;100.00
35647;BME280;28680;45.642;13.756;2023-05-12T11:17:26;101048.31;;;21.90;100.00
35647;BME280;28680;45.642;13.756;2023-05-12T11:19:52;101040.59;;;22.16;100.00
35647;BME280;28680;45.642;13.756;2023-05-12T11:22:21;101040.75;;;22.30;100.00
35647;BME280;28680;45.642;13.756;2023-05-12T11:24:48;101048.41;;;22.33;100.00
35647;BME280;28680;45.642;13.756;2023-05-12T11:27:18;101042.41;;;22.52;100.00
35647;BME280;28680;45.642;13.756;2023-05-12T11:29:57;101042.59;;;22.51;100.00
35647;BME280;28680;45.642;13.756;2023-05-12T11:32:23;101035.16;;;22.46;100.00
35647;BME280;28680;45.642;13.756;2023-05-12T11:34:49;101042.66;;;22.36;100.00
35647;BME280;28680;45.642;13.756;2023-05-12T11:37:15;101050.50;;;22.37;100.00
35647;BME280;28680;45.642;13.756;2023-05-12T11:39:45;101040.88;;;22.43;100.00
35647;BME280;28680;45.642;13.756;2023-05-12T11:42:11;101035.78;;;22.70;100.00
35647;BME280;28680;45.642;13.756;2023-05-12T11:44:48;101041.31;;;22.90;100.00
35647;BME280;28680;45.642;13.756;2023-05-12T11:47:16;101046.00;;;23.09;100.00
35647;BME280;28680;45.642;13.756;2023-05-12T11:49:53;101042.59;;;23.22;100.00
35647;BME280;28680;45.642;13.756;2023-05-12T11:52:21;101038.09;;;23.29;100.00
35647;BME280;28680;45.642;13.756;2023-05-12T11:54:58;101042.09;;;23.47;100.00
35647;BME280;28680;45.642;13.756;2023-05-12T11:57:30;101039.47;;;23.53;100.00
35647;BME280;28680;45.642;13.756;2023-05-12T12:00:05;101031.50;;;23.73;100.00
35647;BME280;28680;45.642;13.756;2023-05-12T12:02:32;101036.56;;;23.48;100.00
35647;BME280;28680;45.642;13.756;2023-05-12T12:05:00;101036.63;;;23.68;100.00
35647;BME280;28680;45.642;13.756;2023-05-12T12:07:34;101031.28;;;23.68;100.00
35647;BME280;28680;45.642;13.756;2023-05-12T12:10:15;101031.09;;;23.28;100.00
35647;BME280;28680;45.642;13.756;2023-05-12T12:12:42;101030.13;;;23.43;100.00
35647;BME280;28680;45.642;13.756;2023-05-12T12:15:10;101032.50;;;23.66;100.00
35647;BME280;28680;45.642;13.756;2023-05-12T12:17:36;101021.22;;;23.77;100.00
35647;BME280;28680;45.642;13.756;2023-05-12T12:20:03;101021.41;;;23.69;100.00
35647;BME280;28680;45.642;13.756;2023-05-12T12:22:28;101022.78;;;23.58;100.00
35647;BME280;28680;45.642;13.756;2023-05-12T12:24:59;101027.72;;;23.54;100.00
35647;BME280;28680;45.642;13.756;2023-05-12T12:27:25;101024.88;;;23.63;100.00
35647;BME280;28680;45.642;13.756;2023-05-12T12:29:51;101035.09;;;23.87;100.00
35647;BME280;28680;45.642;13.756;2023-05-12T12:32:17;101029.25;;;23.77;100.00
35647;BME280;28680;45.642;13.756;2023-05-12T12:34:43;101039.34;;;23.75;100.00